aviador You're here:

LDSP Decoded Metar

SPLIT in CROATIA
Report Time2017-11-24 09:00:00
UTC Time2017-11-24 09:06:12
Flight Rules vfr VFR
WindCalm
Visibility9999 m
Phenomena:N/A
Clouds:Scattered 020 Hf
Broken 035 Hf
Expected CloudBase > 800 ft AGL from Temp-Dew spread
Ceiling3,500 ft
Temp12°C (ISA -3)
Dew Point10°C (88% RH)
QNH1023 hPa
Density Alt-446 ft
Elevation69 ft
Report Wrong Elevation
Raw Report
METAR LDSP 240900Z 00000KT 9999 SCT020 BKN035 12/10 Q1023 NOSIG=

Extra information for LDSP:More info

Metar Taf Metar & Taf Last 4 Metars F.Rules Stats Wind Profile Meteogram Temp Stats Airport Information Weather charts Add Link Nearby VenuesMetar ALERT Operation Metar Decoded Social comments